Terminal Aerodrome Forecast
Issued by NWS

Home | Current Version | Previous Version | Text Only | Print | Product List | Glossary On
Versions: 1 2 3 4 5 6 7 8 9 10 11 12 13 14 15 16 17 18 19 20 21 22 23 24
000
FTUS41 KBGM 261100
TAFELM
TAF
KELM 261138Z 2612/2712 VRB03KT P6SM OVC100
      TEMPO 2612/2614 1SM -SN OVC015
     FM261400 07005KT 1SM -SN OVC015
     FM270300 04005KT 2SM -SN OVC015
     FM270800 36005KT 5SM -SHSN OVC025=

USA.gov is the U.S. government's official web portal to all federal, state and local government web resources and services.